Time;durP1;ratioP1;P1;durP2;ratioP2;P2;SDS_P1;SDS_P2;PMS_P1;PMS_P2;Temp;Humidity;BMP_temperature;BMP_pressure;BME280_temperature;BME280_humidity;BME280_pressure;Samples;Min_cycle;Max_cycle;Signal;HPM_P1;HPM_P2
2022/10/09 00:01:27;;;;;;;;;;;6.00;99.90;;;;;;5089150;28;20817;-64
2022/10/09 00:03:54;;;;;;;;;;;6.00;99.90;;;;;;5093708;28;19924;-65
2022/10/09 00:06:22;;;;;;;;;;;6.00;99.90;;;;;;5100436;28;20373;-65
2022/10/09 00:08:49;;;;;;;;;;;6.10;99.90;;;;;;5103066;28;20358;-65
2022/10/09 00:11:18;;;;;;;;;;;6.10;99.90;;;;;;5097165;28;19928;-64
2022/10/09 00:13:45;;;;;;;;;;;6.00;99.90;;;;;;5093783;28;19924;-65
2022/10/09 00:16:13;;;;;;;;;;;5.80;99.90;;;;;;5090688;28;19928;-65
2022/10/09 00:18:40;;;;;;;;;;;5.70;99.90;;;;;;5084237;28;19995;-65
2022/10/09 00:21:14;;;;;;;;;;;5.80;99.90;;;;;;5087201;28;19924;-65
2022/10/09 00:23:41;;;;;;;;;;;5.70;99.90;;;;;;5091486;28;19924;-65
2022/10/09 00:26:08;;;;;;;;;;;5.60;99.90;;;;;;5090402;28;19928;-65
2022/10/09 00:28:36;;;;;;;;;;;5.60;99.90;;;;;;5090221;28;20020;-64
2022/10/09 00:31:03;;;;;;;;;;;5.70;99.90;;;;;;5094178;28;20298;-65
2022/10/09 00:33:30;;;;;;;;;;;5.60;99.90;;;;;;5090908;28;20367;-65
2022/10/09 00:35:57;;;;;;;;;;;5.60;99.90;;;;;;5101841;28;20412;-64
2022/10/09 00:38:23;;;;;;;;;;;5.60;99.90;;;;;;5095379;28;19924;-65
2022/10/09 00:40:50;;;;;;;;;;;5.50;99.90;;;;;;5090859;28;20026;-64
2022/10/09 00:43:18;;;;;;;;;;;5.50;99.90;;;;;;5090139;28;19978;-65
2022/10/09 00:45:49;;;;;;;;;;;5.60;99.90;;;;;;5091569;28;19924;-65
2022/10/09 00:48:16;;;;;;;;;;;5.60;99.90;;;;;;5105476;28;19981;-65
2022/10/09 00:50:45;;;;;;;;;;;5.70;99.90;;;;;;5087805;28;19923;-64
2022/10/09 00:53:13;;;;;;;;;;;5.60;99.90;;;;;;5086798;28;19924;-66
2022/10/09 00:55:40;;;;;;;;;;;5.40;99.90;;;;;;5090098;28;19928;-64
2022/10/09 00:58:06;;;;;;;;;;;5.40;99.90;;;;;;5108182;28;19960;-65
2022/10/09 01:00:33;;;;;;;;;;;5.40;99.90;;;;;;5096999;28;19994;-65
2022/10/09 01:03:01;;;;;;;;;;;5.40;99.90;;;;;;5092721;28;20398;-65
2022/10/09 01:05:33;;;;;;;;;;;5.30;99.90;;;;;;5089153;28;19924;-66
2022/10/09 01:08:03;;;;;;;;;;;5.20;99.90;;;;;;5102281;28;19927;-65
2022/10/09 01:10:33;;;;;;;;;;;5.20;99.90;;;;;;5086499;28;20332;-66
2022/10/09 01:13:04;;;;;;;;;;;5.10;99.90;;;;;;5108249;28;19924;-66
2022/10/09 01:15:34;;;;;;;;;;;5.20;99.90;;;;;;5095020;28;19931;-65
2022/10/09 01:18:05;;;;;;;;;;;5.20;99.90;;;;;;5110721;28;19924;-66
2022/10/09 01:20:44;;;;;;;;;;;5.10;99.90;;;;;;5095737;28;19939;-65
2022/10/09 01:23:29;;;;;;;;;;;5.00;99.90;;;;;;5096834;28;19930;-66
2022/10/09 01:26:01;;;;;;;;;;;5.00;99.90;;;;;;5089344;28;19924;-66
2022/10/09 01:28:30;;;;;;;;;;;4.90;99.90;;;;;;5088112;28;19930;-66
2022/10/09 01:30:58;;;;;;;;;;;4.90;99.90;;;;;;5080949;28;20027;-65
2022/10/09 01:33:24;;;;;;;;;;;4.90;99.90;;;;;;5096437;28;19932;-65
2022/10/09 01:35:51;;;;;;;;;;;4.90;99.90;;;;;;5101431;28;19932;-65
2022/10/09 01:38:19;;;;;;;;;;;4.80;99.90;;;;;;5083982;28;20026;-65
2022/10/09 01:40:45;;;;;;;;;;;4.80;99.90;;;;;;5085953;28;19931;-65
2022/10/09 01:43:12;;;;;;;;;;;4.80;99.90;;;;;;5094900;28;20382;-65
2022/10/09 01:45:41;;;;;;;;;;;4.80;99.90;;;;;;5098026;28;19935;-65
2022/10/09 01:48:09;;;;;;;;;;;4.80;99.90;;;;;;5084319;28;19928;-65
2022/10/09 01:50:40;;;;;;;;;;;4.80;99.90;;;;;;5086695;28;19929;-65
2022/10/09 01:53:09;;;;;;;;;;;4.80;99.90;;;;;;5087290;28;19924;-65
2022/10/09 01:55:38;;;;;;;;;;;4.80;99.90;;;;;;5087345;28;19934;-65
2022/10/09 01:58:08;;;;;;;;;;;4.80;99.90;;;;;;5095145;28;19931;-65
2022/10/09 02:00:37;;;;;;;;;;;4.80;99.90;;;;;;5086558;28;19934;-64
2022/10/09 02:03:09;;;;;;;;;;;4.80;99.90;;;;;;5088567;28;20396;-64
2022/10/09 02:05:37;;;;;;;;;;;4.80;99.90;;;;;;5089768;28;20023;-64
2022/10/09 02:08:04;;;;;;;;;;;4.80;99.90;;;;;;5086565;28;19930;-64
2022/10/09 02:10:32;;;;;;;;;;;4.90;99.90;;;;;;5094985;28;19930;-65
2022/10/09 02:13:00;;;;;;;;;;;4.80;99.90;;;;;;5094680;28;19924;-65
2022/10/09 02:15:30;;;;;;;;;;;4.90;99.90;;;;;;5097786;28;19977;-65
2022/10/09 02:18:00;;;;;;;;;;;4.80;99.90;;;;;;5089323;28;20378;-64
2022/10/09 02:20:30;;;;;;;;;;;4.70;99.90;;;;;;5086876;28;20003;-66
2022/10/09 02:22:58;;;;;;;;;;;4.60;99.90;;;;;;5092121;28;20293;-65
2022/10/09 02:25:24;;;;;;;;;;;4.60;99.90;;;;;;5092941;28;19924;-65
2022/10/09 02:27:51;;;;;;;;;;;4.50;99.90;;;;;;5094791;28;19930;-65
2022/10/09 02:30:19;;;;;;;;;;;4.50;99.90;;;;;;5099691;28;19935;-65
2022/10/09 02:32:51;;;;;;;;;;;4.60;99.90;;;;;;5098918;28;19932;-65
2022/10/09 02:35:17;;;;;;;;;;;4.60;99.90;;;;;;5106550;28;19932;-65
2022/10/09 02:37:47;;;;;;;;;;;4.60;99.90;;;;;;5091286;28;19928;-65
2022/10/09 02:40:14;;;;;;;;;;;4.60;99.90;;;;;;5093590;28;20023;-64
2022/10/09 02:42:41;;;;;;;;;;;4.60;99.90;;;;;;5100150;28;19932;-65
2022/10/09 02:45:08;;;;;;;;;;;4.60;99.90;;;;;;5112651;28;19931;-64
2022/10/09 02:47:35;;;;;;;;;;;4.50;99.90;;;;;;5087847;28;20359;-65
2022/10/09 02:50:02;;;;;;;;;;;4.50;99.90;;;;;;5090373;28;19924;-65
2022/10/09 02:52:28;;;;;;;;;;;4.50;99.90;;;;;;5091885;28;19924;-65
2022/10/09 02:54:56;;;;;;;;;;;4.40;99.90;;;;;;5093523;28;19930;-64
2022/10/09 02:57:23;;;;;;;;;;;4.40;99.90;;;;;;5094099;28;19931;-65
2022/10/09 02:59:49;;;;;;;;;;;4.30;99.90;;;;;;5088369;28;19931;-65
2022/10/09 03:02:16;;;;;;;;;;;4.30;99.90;;;;;;5097828;28;20046;-65
2022/10/09 03:04:43;;;;;;;;;;;4.40;99.90;;;;;;5108883;28;19930;-64
2022/10/09 03:07:09;;;;;;;;;;;4.40;99.90;;;;;;5084856;28;20025;-65
2022/10/09 03:09:36;;;;;;;;;;;4.40;99.90;;;;;;5095158;28;19975;-65
2022/10/09 03:12:04;;;;;;;;;;;4.40;99.90;;;;;;5090185;28;19924;-65
2022/10/09 03:14:31;;;;;;;;;;;4.40;99.90;;;;;;5092734;28;20015;-65
2022/10/09 03:16:58;;;;;;;;;;;4.30;99.90;;;;;;5096435;28;20383;-65
2022/10/09 03:19:24;;;;;;;;;;;4.40;99.90;;;;;;5088890;28;20450;-64
2022/10/09 03:21:51;;;;;;;;;;;4.40;99.90;;;;;;5095243;28;20429;-65
2022/10/09 03:24:18;;;;;;;;;;;4.30;99.90;;;;;;5091235;28;20418;-64
2022/10/09 03:26:45;;;;;;;;;;;4.30;99.90;;;;;;5098816;28;20152;-65
2022/10/09 03:29:13;;;;;;;;;;;4.30;99.90;;;;;;5085637;28;19923;-65
2022/10/09 03:31:39;;;;;;;;;;;4.20;99.90;;;;;;5093835;28;20161;-64
2022/10/09 03:34:06;;;;;;;;;;;4.20;99.90;;;;;;5102607;28;20387;-65
2022/10/09 03:36:33;;;;;;;;;;;4.20;99.90;;;;;;5104706;28;20305;-65
2022/10/09 03:38:59;;;;;;;;;;;4.20;99.90;;;;;;5095521;28;19924;-65
2022/10/09 03:41:26;;;;;;;;;;;4.20;99.90;;;;;;5090710;28;20011;-64
2022/10/09 03:43:52;;;;;;;;;;;4.10;99.90;;;;;;5092223;28;19924;-65
2022/10/09 03:46:20;;;;;;;;;;;4.10;99.90;;;;;;5091166;28;20015;-64
2022/10/09 03:48:47;;;;;;;;;;;4.10;99.90;;;;;;5082188;28;19924;-64
2022/10/09 03:51:14;;;;;;;;;;;4.10;99.90;;;;;;5101478;28;19923;-64
2022/10/09 03:53:40;;;;;;;;;;;4.10;99.90;;;;;;5088703;28;19935;-65
2022/10/09 03:56:07;;;;;;;;;;;4.10;99.90;;;;;;5091396;28;19930;-64
2022/10/09 03:58:34;;;;;;;;;;;4.00;99.90;;;;;;5089003;28;20373;-64
2022/10/09 04:01:00;;;;;;;;;;;4.00;99.90;;;;;;5097707;28;20449;-65
2022/10/09 04:03:28;;;;;;;;;;;3.90;99.90;;;;;;5083186;28;20411;-64
2022/10/09 04:05:55;;;;;;;;;;;3.90;99.90;;;;;;5101266;28;20245;-64
2022/10/09 04:08:22;;;;;;;;;;;3.90;99.90;;;;;;5091288;28;19924;-64
2022/10/09 04:10:48;;;;;;;;;;;3.90;99.90;;;;;;5093278;28;19969;-65
2022/10/09 04:13:15;;;;;;;;;;;3.90;99.90;;;;;;5091111;28;19928;-66
2022/10/09 04:15:49;;;;;;;;;;;3.90;99.90;;;;;;5088176;28;20007;-65
2022/10/09 04:18:16;;;;;;;;;;;4.00;99.90;;;;;;5095181;28;19942;-64
2022/10/09 04:20:47;;;;;;;;;;;4.00;99.90;;;;;;5088188;28;20019;-64
2022/10/09 04:23:14;;;;;;;;;;;4.00;99.90;;;;;;5089294;28;19924;-64
2022/10/09 04:25:40;;;;;;;;;;;4.10;99.90;;;;;;5089488;28;20448;-64
2022/10/09 04:28:07;;;;;;;;;;;4.10;99.90;;;;;;5089549;28;20011;-64
2022/10/09 04:30:34;;;;;;;;;;;4.20;99.90;;;;;;5088040;28;19929;-65
2022/10/09 04:33:00;;;;;;;;;;;4.20;99.90;;;;;;5084665;28;19924;-64
2022/10/09 04:35:27;;;;;;;;;;;4.30;99.90;;;;;;5104670;28;20382;-64
2022/10/09 04:37:55;;;;;;;;;;;4.30;99.90;;;;;;5087634;28;19930;-64
2022/10/09 04:40:22;;;;;;;;;;;4.40;99.90;;;;;;5093889;28;20293;-64
2022/10/09 04:42:48;;;;;;;;;;;4.40;99.90;;;;;;5095146;28;19930;-64
2022/10/09 04:45:15;;;;;;;;;;;4.40;99.90;;;;;;5092905;28;21391;-64
2022/10/09 04:47:42;;;;;;;;;;;4.40;99.90;;;;;;5094768;28;20347;-64
2022/10/09 04:50:09;;;;;;;;;;;4.30;99.90;;;;;;5091679;28;20413;-65
2022/10/09 04:52:36;;;;;;;;;;;4.30;99.90;;;;;;5084733;28;20027;-64
2022/10/09 04:55:04;;;;;;;;;;;4.20;99.90;;;;;;5106496;28;19942;-64
2022/10/09 04:57:30;;;;;;;;;;;4.20;99.90;;;;;;5095129;28;19924;-64
2022/10/09 04:59:57;;;;;;;;;;;4.20;99.90;;;;;;5086301;28;20018;-64
2022/10/09 05:02:24;;;;;;;;;;;4.20;99.90;;;;;;5087901;28;19924;-64
2022/10/09 05:04:50;;;;;;;;;;;4.30;99.90;;;;;;5088207;28;20371;-64
2022/10/09 05:07:17;;;;;;;;;;;4.30;99.90;;;;;;5088083;28;19924;-64
2022/10/09 05:09:44;;;;;;;;;;;4.30;99.90;;;;;;5088395;28;19931;-64
2022/10/09 05:12:12;;;;;;;;;;;4.30;99.90;;;;;;5097140;28;19924;-64
2022/10/09 05:14:38;;;;;;;;;;;4.30;99.90;;;;;;5089553;28;19924;-65
2022/10/09 05:17:06;;;;;;;;;;;4.30;99.90;;;;;;5087628;28;19931;-65
2022/10/09 05:19:33;;;;;;;;;;;4.40;99.90;;;;;;5085064;28;20345;-64
2022/10/09 05:22:00;;;;;;;;;;;4.40;99.90;;;;;;5088213;28;19924;-64
2022/10/09 05:24:27;;;;;;;;;;;4.30;99.90;;;;;;5089686;28;19923;-64
2022/10/09 05:26:53;;;;;;;;;;;4.30;99.90;;;;;;5096956;28;19924;-64
2022/10/09 05:29:21;;;;;;;;;;;4.30;99.90;;;;;;5088953;28;19924;-64
2022/10/09 05:31:48;;;;;;;;;;;4.20;99.90;;;;;;5089690;28;20439;-64
2022/10/09 05:34:15;;;;;;;;;;;4.20;99.90;;;;;;5087633;28;19930;-64
2022/10/09 05:36:42;;;;;;;;;;;4.20;99.90;;;;;;5088094;28;19927;-64
2022/10/09 05:39:09;;;;;;;;;;;4.30;99.90;;;;;;5094564;28;19924;-65
2022/10/09 05:41:35;;;;;;;;;;;4.20;99.90;;;;;;5085334;28;19924;-65
2022/10/09 05:44:03;;;;;;;;;;;4.20;99.90;;;;;;5096873;28;19936;-65
2022/10/09 05:46:31;;;;;;;;;;;4.30;99.90;;;;;;5091603;28;20006;-65
2022/10/09 05:48:59;;;;;;;;;;;4.30;99.90;;;;;;5091870;28;20360;-65
2022/10/09 05:51:28;;;;;;;;;;;4.30;99.90;;;;;;5094509;28;20333;-65
2022/10/09 05:53:55;;;;;;;;;;;4.30;99.90;;;;;;5093691;28;21593;-65
2022/10/09 05:56:23;;;;;;;;;;;4.30;99.90;;;;;;5091113;28;19930;-65
2022/10/09 05:58:50;;;;;;;;;;;4.30;99.90;;;;;;5095920;28;20366;-65
2022/10/09 06:01:17;;;;;;;;;;;4.30;99.90;;;;;;5089935;28;19930;-65
2022/10/09 06:03:47;;;;;;;;;;;4.30;99.90;;;;;;5090801;28;19924;-66
2022/10/09 06:06:14;;;;;;;;;;;4.20;99.90;;;;;;5090275;28;19924;-65
2022/10/09 06:08:40;;;;;;;;;;;4.30;99.90;;;;;;5089133;28;20140;-65
2022/10/09 06:11:10;;;;;;;;;;;4.30;99.90;;;;;;5086014;28;20105;-66
2022/10/09 06:13:37;;;;;;;;;;;4.30;99.90;;;;;;5093809;28;19924;-63
2022/10/09 06:16:04;;;;;;;;;;;4.30;99.90;;;;;;5088495;28;19924;-63
2022/10/09 06:18:30;;;;;;;;;;;4.30;99.90;;;;;;5090117;28;19967;-63
2022/10/09 06:20:59;;;;;;;;;;;4.40;99.90;;;;;;5089766;28;19924;-63
2022/10/09 06:23:26;;;;;;;;;;;4.40;99.90;;;;;;5087643;28;19931;-65
2022/10/09 06:25:54;;;;;;;;;;;4.50;99.90;;;;;;5090324;28;20402;-65
2022/10/09 06:28:20;;;;;;;;;;;4.50;99.90;;;;;;5090717;28;19924;-65
2022/10/09 06:30:47;;;;;;;;;;;4.50;99.90;;;;;;5091884;28;20384;-63
2022/10/09 06:33:14;;;;;;;;;;;4.60;99.90;;;;;;5089930;28;20382;-64
2022/10/09 06:35:41;;;;;;;;;;;4.60;99.90;;;;;;5105196;28;19934;-64
2022/10/09 06:38:09;;;;;;;;;;;4.70;99.90;;;;;;5089542;28;19932;-65
2022/10/09 06:40:36;;;;;;;;;;;4.70;99.90;;;;;;5097156;28;20373;-64
2022/10/09 06:43:03;;;;;;;;;;;4.80;99.90;;;;;;5090606;28;19927;-65
2022/10/09 06:45:30;;;;;;;;;;;4.80;99.90;;;;;;5091702;28;20038;-64
2022/10/09 06:47:56;;;;;;;;;;;4.90;99.90;;;;;;5087851;28;20383;-64
2022/10/09 06:50:23;;;;;;;;;;;4.90;99.90;;;;;;5086807;28;20034;-64
2022/10/09 06:52:50;;;;;;;;;;;5.00;99.90;;;;;;5086739;28;20405;-64
2022/10/09 06:55:18;;;;;;;;;;;5.10;99.90;;;;;;5089458;28;19928;-64
2022/10/09 06:57:45;;;;;;;;;;;5.10;99.90;;;;;;5091328;28;19951;-63
2022/10/09 07:00:12;;;;;;;;;;;5.20;99.90;;;;;;5087628;28;20027;-64
2022/10/09 07:02:41;;;;;;;;;;;5.30;99.90;;;;;;5087354;28;20386;-63
2022/10/09 07:05:08;;;;;;;;;;;5.30;99.90;;;;;;5089000;28;19927;-63
2022/10/09 07:07:34;;;;;;;;;;;5.40;99.90;;;;;;5106403;28;19959;-64
2022/10/09 07:10:01;;;;;;;;;;;5.40;99.90;;;;;;5099415;28;20023;-65
2022/10/09 07:12:29;;;;;;;;;;;5.50;99.90;;;;;;5090063;28;19924;-67
2022/10/09 07:14:56;;;;;;;;;;;5.60;99.90;;;;;;5094565;28;19959;-65
2022/10/09 07:17:22;;;;;;;;;;;5.70;99.90;;;;;;5089129;28;19928;-65
2022/10/09 07:19:49;;;;;;;;;;;5.80;99.90;;;;;;5088516;28;20390;-66
2022/10/09 07:22:16;;;;;;;;;;;5.90;99.90;;;;;;5085023;28;19932;-64
2022/10/09 07:24:43;;;;;;;;;;;6.00;99.90;;;;;;5090269;28;20426;-64
2022/10/09 07:27:09;;;;;;;;;;;6.10;99.90;;;;;;5083929;28;19928;-64
2022/10/09 07:29:37;;;;;;;;;;;6.20;99.90;;;;;;5091246;28;20105;-64
2022/10/09 07:32:04;;;;;;;;;;;6.30;99.90;;;;;;5094766;28;20045;-65
2022/10/09 07:34:31;;;;;;;;;;;6.40;99.90;;;;;;5089703;28;19924;-65
2022/10/09 07:36:57;;;;;;;;;;;6.50;99.90;;;;;;5086890;28;19930;-65
2022/10/09 07:39:24;;;;;;;;;;;6.70;99.90;;;;;;5086487;28;19924;-65
2022/10/09 07:41:51;;;;;;;;;;;6.80;99.90;;;;;;5087125;28;20025;-65
2022/10/09 07:44:18;;;;;;;;;;;6.90;99.90;;;;;;5098838;28;19971;-65
2022/10/09 07:46:46;;;;;;;;;;;8.00;99.90;;;;;;5088082;28;20019;-66
2022/10/09 07:49:13;;;;;;;;;;;9.70;99.90;;;;;;5088426;28;20035;-66
2022/10/09 07:51:39;;;;;;;;;;;11.20;99.90;;;;;;5083225;28;20439;-67
2022/10/09 07:54:06;;;;;;;;;;;12.20;99.90;;;;;;5089106;28;20015;-66
2022/10/09 07:56:34;;;;;;;;;;;13.10;99.90;;;;;;5091081;28;20021;-66
2022/10/09 07:59:01;;;;;;;;;;;13.20;99.90;;;;;;5084274;28;20302;-65
2022/10/09 08:01:28;;;;;;;;;;;13.80;99.90;;;;;;5089359;28;20365;-64
2022/10/09 08:03:56;;;;;;;;;;;14.30;99.90;;;;;;5088206;28;20236;-65
2022/10/09 08:06:23;;;;;;;;;;;14.50;99.90;;;;;;5097601;28;20309;-64
2022/10/09 08:08:50;;;;;;;;;;;15.60;99.90;;;;;;5089439;28;20362;-63
2022/10/09 08:11:18;;;;;;;;;;;15.20;98.80;;;;;;5084380;28;19928;-64
2022/10/09 08:13:45;;;;;;;;;;;15.70;94.90;;;;;;5084508;28;19924;-63
2022/10/09 08:16:12;;;;;;;;;;;14.30;99.60;;;;;;5097299;28;19924;-63
2022/10/09 08:18:39;;;;;;;;;;;14.60;99.90;;;;;;5080745;28;19959;-64
2022/10/09 08:21:08;;;;;;;;;;;15.30;99.80;;;;;;5098490;28;19980;-65
2022/10/09 08:23:35;;;;;;;;;;;17.20;94.60;;;;;;5078030;28;19930;-65
2022/10/09 08:26:02;;;;;;;;;;;17.50;90.60;;;;;;5085754;28;19924;-65
2022/10/09 08:28:28;;;;;;;;;;;19.40;82.90;;;;;;5086626;28;19928;-65
2022/10/09 08:30:55;;;;;;;;;;;19.70;74.00;;;;;;5091701;28;20290;-65
2022/10/09 08:33:23;;;;;;;;;;;20.70;62.90;;;;;;5091802;28;19930;-65
2022/10/09 08:35:50;;;;;;;;;;;21.00;56.80;;;;;;5098013;28;19956;-65
2022/10/09 08:38:18;;;;;;;;;;;20.30;54.10;;;;;;5083352;28;19924;-65
2022/10/09 08:40:48;;;;;;;;;;;20.20;54.40;;;;;;5073129;28;19932;-65
2022/10/09 08:43:16;;;;;;;;;;;20.30;54.20;;;;;;5087644;28;20404;-65
2022/10/09 08:45:45;;;;;;;;;;;20.90;52.80;;;;;;5087485;28;19924;-65
2022/10/09 08:48:14;;;;;;;;;;;21.40;52.10;;;;;;5079944;28;20010;-65
2022/10/09 08:50:44;;;;;;;;;;;21.10;50.10;;;;;;5087623;28;20930;-66
2022/10/09 08:53:16;;;;;;;;;;;21.30;47.50;;;;;;5085739;28;20353;-65
2022/10/09 08:55:47;;;;;;;;;;;21.40;47.60;;;;;;5083820;28;19924;-66
2022/10/09 08:58:15;;;;;;;;;;;21.90;46.50;;;;;;5090956;28;20015;-66
2022/10/09 09:00:44;;;;;;;;;;;22.40;44.40;;;;;;5089302;28;19924;-66
2022/10/09 09:03:22;;;;;;;;;;;22.40;41.80;;;;;;5088403;28;19938;-67
2022/10/09 09:05:54;;;;;;;;;;;22.70;41.40;;;;;;5081907;28;19930;-66
2022/10/09 09:08:24;;;;;;;;;;;21.00;40.30;;;;;;5085396;28;20398;-66
2022/10/09 09:10:55;;;;;;;;;;;21.60;42.80;;;;;;5090980;28;20015;-66
2022/10/09 09:13:32;;;;;;;;;;;22.30;40.80;;;;;;5085818;28;20024;-65
2022/10/09 09:16:02;;;;;;;;;;;21.40;42.50;;;;;;5082137;28;19959;-66
2022/10/09 09:18:35;;;;;;;;;;;22.30;41.30;;;;;;5087184;28;19927;-66
2022/10/09 09:21:05;;;;;;;;;;;22.80;39.90;;;;;;5087923;28;19932;-66
2022/10/09 09:23:36;;;;;;;;;;;22.80;38.40;;;;;;5090057;28;19924;-66
2022/10/09 09:26:09;;;;;;;;;;;20.90;38.80;;;;;;5088459;28;20015;-66
2022/10/09 09:28:36;;;;;;;;;;;18.70;42.50;;;;;;5079146;28;19924;-66
2022/10/09 09:31:08;;;;;;;;;;;16.60;51.30;;;;;;5081872;28;20344;-66
2022/10/09 09:33:39;;;;;;;;;;;15.80;67.10;;;;;;5082113;28;19970;-66
2022/10/09 09:36:09;;;;;;;;;;;15.30;83.20;;;;;;5083416;28;19978;-66
2022/10/09 09:38:36;;;;;;;;;;;14.90;88.20;;;;;;5083063;28;20456;-66
2022/10/09 09:41:04;;;;;;;;;;;14.70;92.20;;;;;;5084668;28;19930;-66
2022/10/09 09:43:31;;;;;;;;;;;14.50;95.00;;;;;;5087838;28;20034;-66
2022/10/09 09:45:59;;;;;;;;;;;14.50;96.40;;;;;;5085575;28;19970;-66
2022/10/09 09:48:31;;;;;;;;;;;14.40;96.70;;;;;;5094961;28;19932;-66
2022/10/09 09:50:58;;;;;;;;;;;14.40;96.30;;;;;;5088621;28;19931;-66
2022/10/09 09:53:27;;;;;;;;;;;14.40;95.90;;;;;;5091724;28;20370;-66
2022/10/09 09:55:54;;;;;;;;;;;14.40;96.30;;;;;;5086832;28;19934;-66
2022/10/09 09:58:22;;;;;;;;;;;14.30;96.80;;;;;;5076918;28;20360;-66
2022/10/09 10:00:56;;;;;;;;;;;14.40;96.70;;;;;;5087866;28;19924;-66
2022/10/09 10:03:23;;;;;;;;;;;14.40;97.60;;;;;;5087055;28;20011;-66
2022/10/09 10:05:50;;;;;;;;;;;14.20;99.90;;;;;;5095203;28;19923;-66
2022/10/09 10:08:22;;;;;;;;;;;14.20;99.30;;;;;;5076797;28;19935;-66
2022/10/09 10:10:50;;;;;;;;;;;14.40;98.40;;;;;;5084190;28;19930;-67
2022/10/09 10:13:18;;;;;;;;;;;14.50;98.10;;;;;;5089781;28;20309;-66
2022/10/09 10:15:51;;;;;;;;;;;14.60;97.30;;;;;;5097883;28;19927;-67
2022/10/09 10:18:21;;;;;;;;;;;14.80;96.90;;;;;;5085574;28;19924;-67
2022/10/09 10:20:50;;;;;;;;;;;14.90;97.10;;;;;;5086392;28;19967;-66
2022/10/09 10:23:24;;;;;;;;;;;15.00;96.50;;;;;;5083468;28;19946;-67
2022/10/09 10:25:52;;;;;;;;;;;15.10;95.20;;;;;;5088086;28;20395;-66
2022/10/09 10:28:23;;;;;;;;;;;15.00;94.50;;;;;;5093231;28;19928;-67
2022/10/09 10:30:52;;;;;;;;;;;15.10;94.20;;;;;;5102059;28;19977;-67
2022/10/09 10:33:20;;;;;;;;;;;15.10;94.30;;;;;;5088877;28;19925;-67
2022/10/09 10:35:49;;;;;;;;;;;15.20;94.80;;;;;;5093532;28;19924;-67
2022/10/09 10:38:18;;;;;;;;;;;15.30;94.10;;;;;;5095283;28;19928;-66
2022/10/09 10:40:47;;;;;;;;;;;15.40;94.00;;;;;;5104307;28;19928;-67
2022/10/09 10:43:15;;;;;;;;;;;15.40;93.70;;;;;;5098984;28;19932;-66
2022/10/09 10:45:49;;;;;;;;;;;15.50;93.80;;;;;;5093534;28;19924;-67
2022/10/09 10:48:19;;;;;;;;;;;15.60;94.10;;;;;;5102843;28;20023;-67
2022/10/09 10:50:49;;;;;;;;;;;15.80;93.60;;;;;;5089755;28;19932;-67
2022/10/09 10:53:18;;;;;;;;;;;15.70;92.90;;;;;;5101291;28;20386;-68
2022/10/09 10:55:48;;;;;;;;;;;15.70;92.80;;;;;;5098997;28;19975;-66
2022/10/09 10:58:23;;;;;;;;;;;15.70;93.00;;;;;;5093128;28;19927;-67
2022/10/09 11:00:54;;;;;;;;;;;15.90;93.00;;;;;;5105618;28;19924;-67
2022/10/09 11:03:33;;;;;;;;;;;16.00;92.80;;;;;;5097227;28;19924;-67
2022/10/09 11:06:04;;;;;;;;;;;15.90;92.30;;;;;;5093155;28;19946;-67
2022/10/09 11:08:42;;;;;;;;;;;15.90;92.70;;;;;;5095816;28;20383;-67
2022/10/09 11:11:12;;;;;;;;;;;15.90;93.00;;;;;;5073248;28;19924;-66
2022/10/09 11:13:44;;;;;;;;;;;15.90;93.40;;;;;;5084522;28;19932;-67
2022/10/09 11:16:22;;;;;;;;;;;16.10;93.00;;;;;;5099178;28;19935;-66
2022/10/09 11:18:58;;;;;;;;;;;16.20;93.30;;;;;;5096437;28;19924;-67
2022/10/09 11:21:33;;;;;;;;;;;16.30;92.90;;;;;;5096822;28;19977;-66
2022/10/09 11:24:07;;;;;;;;;;;16.30;92.40;;;;;;5084349;28;19924;-66
2022/10/09 11:26:39;;;;;;;;;;;16.20;92.80;;;;;;5085143;28;20302;-67
2022/10/09 11:29:09;;;;;;;;;;;16.40;93.20;;;;;;5085773;28;19928;-67
2022/10/09 11:31:40;;;;;;;;;;;16.60;92.90;;;;;;5085426;28;20356;-67
2022/10/09 11:34:12;;;;;;;;;;;16.60;92.30;;;;;;5097549;28;19923;-66
2022/10/09 11:36:40;;;;;;;;;;;16.60;92.10;;;;;;5088241;28;19978;-66
2022/10/09 11:39:10;;;;;;;;;;;16.70;92.30;;;;;;5089056;28;19936;-67
2022/10/09 11:41:38;;;;;;;;;;;16.60;91.60;;;;;;5098845;28;19931;-67
2022/10/09 11:44:16;;;;;;;;;;;16.70;91.40;;;;;;5089778;28;20030;-67
2022/10/09 11:46:46;;;;;;;;;;;16.80;91.10;;;;;;5090185;28;20011;-67
2022/10/09 11:49:19;;;;;;;;;;;17.00;90.90;;;;;;5093860;28;19932;-65
2022/10/09 11:51:50;;;;;;;;;;;17.20;90.00;;;;;;5078644;28;19931;-68
2022/10/09 11:54:18;;;;;;;;;;;17.10;87.80;;;;;;5090054;28;19930;-66
2022/10/09 11:56:55;;;;;;;;;;;17.10;86.50;;;;;;5082859;28;20011;-68
2022/10/09 11:59:24;;;;;;;;;;;17.00;85.80;;;;;;5093288;28;20400;-66
2022/10/09 12:01:51;;;;;;;;;;;17.00;86.20;;;;;;5088854;28;19967;-67
2022/10/09 12:04:25;;;;;;;;;;;17.00;86.80;;;;;;5097836;28;19930;-67
2022/10/09 12:06:53;;;;;;;;;;;17.20;84.70;;;;;;5098550;28;19924;-67
2022/10/09 12:09:22;;;;;;;;;;;17.20;83.40;;;;;;5106723;28;19924;-67
2022/10/09 12:11:58;;;;;;;;;;;17.20;82.80;;;;;;5094691;28;19967;-67
2022/10/09 12:14:25;;;;;;;;;;;17.30;82.10;;;;;;5092350;28;19924;-66
2022/10/09 12:16:52;;;;;;;;;;;17.40;79.80;;;;;;5108928;28;20011;-66
2022/10/09 12:19:22;;;;;;;;;;;17.40;78.20;;;;;;5092550;28;19924;-67
2022/10/09 12:21:52;;;;;;;;;;;17.30;77.00;;;;;;5098653;28;20290;-67
2022/10/09 12:24:20;;;;;;;;;;;17.30;75.90;;;;;;5089191;28;19958;-65
2022/10/09 12:26:47;;;;;;;;;;;17.50;76.40;;;;;;5100440;28;20357;-67
2022/10/09 12:29:18;;;;;;;;;;;17.60;75.20;;;;;;5088852;28;19947;-67
2022/10/09 12:31:45;;;;;;;;;;;17.60;74.10;;;;;;5088553;28;20109;-66
2022/10/09 12:34:16;;;;;;;;;;;17.70;72.40;;;;;;5089327;28;19946;-66
2022/10/09 12:36:43;;;;;;;;;;;17.80;73.30;;;;;;5086159;28;19962;-67
2022/10/09 12:39:15;;;;;;;;;;;17.90;70.70;;;;;;5093269;28;20448;-68
2022/10/09 12:41:44;;;;;;;;;;;17.90;69.40;;;;;;5082780;28;20002;-67
2022/10/09 12:44:17;;;;;;;;;;;18.00;69.80;;;;;;5083609;28;19928;-67
2022/10/09 12:46:44;;;;;;;;;;;18.10;69.30;;;;;;5096646;28;19932;-68
2022/10/09 12:49:18;;;;;;;;;;;18.10;68.20;;;;;;5087830;28;19931;-69
2022/10/09 12:51:50;;;;;;;;;;;18.00;66.60;;;;;;5090944;28;20004;-67
2022/10/09 12:54:18;;;;;;;;;;;17.90;66.50;;;;;;5080525;28;20306;-66
2022/10/09 12:56:45;;;;;;;;;;;18.00;67.70;;;;;;5086923;28;19947;-66
2022/10/09 12:59:12;;;;;;;;;;;18.10;69.50;;;;;;5092337;28;19930;-67
2022/10/09 13:01:39;;;;;;;;;;;18.20;67.20;;;;;;5084708;28;20363;-66
2022/10/09 13:04:08;;;;;;;;;;;18.30;65.80;;;;;;5087445;28;19925;-66
2022/10/09 13:06:37;;;;;;;;;;;18.30;64.50;;;;;;5081345;28;19924;-67
2022/10/09 13:09:06;;;;;;;;;;;18.10;62.80;;;;;;5088889;28;19930;-66
2022/10/09 13:11:36;;;;;;;;;;;18.30;64.00;;;;;;5088221;28;19964;-67
2022/10/09 13:14:05;;;;;;;;;;;18.40;62.60;;;;;;5087599;28;20349;-66
2022/10/09 13:16:42;;;;;;;;;;;18.20;60.50;;;;;;5085920;28;19977;-67
2022/10/09 13:19:21;;;;;;;;;;;18.10;61.00;;;;;;5085154;28;19971;-67
2022/10/09 13:21:59;;;;;;;;;;;18.10;61.40;;;;;;5085514;28;20015;-66
2022/10/09 13:24:26;;;;;;;;;;;18.10;61.00;;;;;;5082931;28;19931;-66
2022/10/09 13:26:54;;;;;;;;;;;18.10;60.70;;;;;;5083050;28;20299;-66
2022/10/09 13:29:21;;;;;;;;;;;18.20;60.00;;;;;;5103622;28;20015;-66
2022/10/09 13:31:47;;;;;;;;;;;18.10;59.40;;;;;;5086420;28;19932;-67
2022/10/09 13:34:15;;;;;;;;;;;18.10;60.30;;;;;;5093572;28;19963;-67
2022/10/09 13:36:41;;;;;;;;;;;18.10;62.20;;;;;;5083883;28;19928;-67
2022/10/09 13:39:10;;;;;;;;;;;18.20;59.40;;;;;;5098776;28;19934;-67
2022/10/09 13:41:37;;;;;;;;;;;18.20;59.90;;;;;;5087247;28;19924;-66
2022/10/09 13:44:05;;;;;;;;;;;18.30;60.50;;;;;;5086479;28;19982;-66
2022/10/09 13:46:32;;;;;;;;;;;18.20;60.00;;;;;;5088075;28;19924;-66
2022/10/09 13:48:58;;;;;;;;;;;18.20;60.00;;;;;;5082981;28;20011;-67
2022/10/09 13:51:25;;;;;;;;;;;18.10;61.10;;;;;;5085834;28;19970;-68
2022/10/09 13:53:52;;;;;;;;;;;17.90;60.80;;;;;;5092027;28;19982;-66
2022/10/09 13:56:19;;;;;;;;;;;18.00;59.60;;;;;;5083004;28;19972;-67
2022/10/09 13:58:46;;;;;;;;;;;18.20;59.90;;;;;;5091267;28;19930;-66
2022/10/09 14:01:14;;;;;;;;;;;18.40;58.70;;;;;;5085285;28;19934;-66
2022/10/09 14:03:40;;;;;;;;;;;18.30;58.80;;;;;;5098811;28;19924;-66
2022/10/09 14:06:07;;;;;;;;;;;18.20;58.30;;;;;;5088458;28;19927;-67
2022/10/09 14:08:34;;;;;;;;;;;18.00;59.00;;;;;;5096176;28;19970;-67
2022/10/09 14:11:01;;;;;;;;;;;18.00;58.30;;;;;;5086714;28;20012;-66
2022/10/09 14:13:28;;;;;;;;;;;18.00;57.60;;;;;;5087578;28;20019;-66
2022/10/09 14:15:55;;;;;;;;;;;18.00;59.00;;;;;;5090522;28;19930;-66
2022/10/09 14:18:23;;;;;;;;;;;17.90;58.60;;;;;;5089161;28;20458;-67
2022/10/09 14:20:49;;;;;;;;;;;18.00;57.90;;;;;;5089292;28;20027;-67
2022/10/09 14:23:16;;;;;;;;;;;18.10;58.10;;;;;;5089353;28;19928;-67
2022/10/09 14:25:43;;;;;;;;;;;18.10;56.90;;;;;;5091812;28;19928;-67
2022/10/09 14:28:09;;;;;;;;;;;18.10;56.80;;;;;;5083495;28;20446;-67
2022/10/09 14:30:39;;;;;;;;;;;18.00;57.10;;;;;;5088043;28;21649;-67